createdAt,value
2022-08-26T00:01:29.906Z,53.03
2022-08-26T00:04:34.985Z,54.16
2022-08-26T00:07:38.340Z,53.92
2022-08-26T00:10:42.397Z,54.52
2022-08-26T00:13:47.884Z,53.67
2022-08-26T00:16:53.379Z,53.07
2022-08-26T00:19:59.980Z,53.67
2022-08-26T00:23:04.070Z,53.88
2022-08-26T00:26:08.335Z,54.23
2022-08-26T00:29:14.844Z,54.07
2022-08-26T00:32:18.295Z,53.89
2022-08-26T00:35:23.748Z,54.03
2022-08-26T00:38:27.132Z,54.14
2022-08-26T00:41:30.586Z,54.66
2022-08-26T00:44:33.868Z,54.19
2022-08-26T00:47:41.679Z,54.12
2022-08-26T00:50:52.264Z,54.09
2022-08-26T00:53:59.091Z,54.51
2022-08-26T00:57:08.741Z,54.66
2022-08-26T01:00:23.821Z,54.91
2022-08-26T01:03:29.172Z,54.40
2022-08-26T01:06:34.658Z,54.59
2022-08-26T01:09:38.399Z,54.75
2022-08-26T01:12:46.652Z,53.81
2022-08-26T01:15:54.769Z,54.07
2022-08-26T01:19:03.131Z,54.42
2022-08-26T01:22:13.532Z,54.84
2022-08-26T01:25:20.593Z,54.17
2022-08-26T01:28:28.177Z,54.24
2022-08-26T01:31:37.756Z,54.31
2022-08-26T01:34:42.876Z,54.05
2022-08-26T01:37:46.802Z,54.13
2022-08-26T01:40:52.065Z,54.35
2022-08-26T01:43:58.742Z,54.33
2022-08-26T01:47:03.311Z,55.13
2022-08-26T01:50:15.710Z,55.25
2022-08-26T01:53:32.329Z,54.74
2022-08-26T01:56:37.877Z,54.77
2022-08-26T01:59:41.260Z,54.76
2022-08-26T02:02:47.665Z,55.02
2022-08-26T02:05:55.505Z,54.30
2022-08-26T02:09:03.954Z,53.65
2022-08-26T02:12:10.356Z,54.78
2022-08-26T02:15:14.142Z,54.33
2022-08-26T02:18:17.588Z,53.93
2022-08-26T02:21:21.006Z,55.09
2022-08-26T02:24:27.814Z,55.79
2022-08-26T02:27:36.923Z,55.06
2022-08-26T02:30:42.002Z,55.53
2022-08-26T02:33:45.372Z,55.22
2022-08-26T02:36:49.464Z,56.08
2022-08-26T02:39:54.330Z,54.96
2022-08-26T02:42:59.135Z,55.78
2022-08-26T02:46:03.382Z,56.12
2022-08-26T02:49:06.768Z,56.68
2022-08-26T02:52:10.155Z,56.96
2022-08-26T02:55:13.588Z,56.25
2022-08-26T02:58:18.494Z,56.35
2022-08-26T03:01:25.890Z,56.46
2022-08-26T03:04:33.489Z,56.91
2022-08-26T03:07:36.980Z,56.36
2022-08-26T03:10:40.854Z,56.03
2022-08-26T03:13:46.587Z,55.33
2022-08-26T03:16:51.944Z,55.77
2022-08-26T03:19:57.207Z,55.25
2022-08-26T03:23:01.315Z,54.69
2022-08-26T03:26:06.161Z,54.44
2022-08-26T03:29:28.711Z,54.93
2022-08-26T03:32:36.344Z,54.64
2022-08-26T03:35:43.592Z,55.01
2022-08-26T03:38:47.228Z,55.02
2022-08-26T03:41:51.843Z,55.45
2022-08-26T03:44:57.234Z,55.74
2022-08-26T03:48:01.060Z,55.68
2022-08-26T03:51:12.244Z,54.63
2022-08-26T03:54:15.707Z,54.45
2022-08-26T03:57:19.372Z,55.10
2022-08-26T04:00:24.248Z,55.38
2022-08-26T04:03:46.021Z,54.75
2022-08-26T04:06:49.354Z,55.29
2022-08-26T04:09:56.154Z,55.66
2022-08-26T04:13:00.242Z,55.63
2022-08-26T04:16:05.452Z,55.06
2022-08-26T04:19:09.709Z,55.45
2022-08-26T04:22:14.090Z,54.91
2022-08-26T04:25:18.692Z,53.85
2022-08-26T04:28:24.872Z,53.56
2022-08-26T04:31:30.983Z,52.89
2022-08-26T04:34:35.768Z,54.05
2022-08-26T04:37:39.011Z,53.80
2022-08-26T04:40:47.498Z,53.73
2022-08-26T04:43:50.939Z,53.80
2022-08-26T04:46:56.100Z,53.41
2022-08-26T04:50:00.132Z,52.87
2022-08-26T04:53:05.625Z,52.70
2022-08-26T04:56:10.677Z,52.91
2022-08-26T04:59:18.171Z,52.53
2022-08-26T05:02:23.070Z,52.22
2022-08-26T05:05:28.625Z,51.65
2022-08-26T05:08:31.956Z,51.65
2022-08-26T05:11:35.799Z,51.34
2022-08-26T05:14:39.335Z,51.09
2022-08-26T05:17:44.073Z,49.99
2022-08-26T05:20:49.983Z,50.16
2022-08-26T05:23:54.948Z,50.49
2022-08-26T05:26:58.191Z,50.34
2022-08-26T05:30:03.478Z,50.66
2022-08-26T05:33:09.863Z,50.30
2022-08-26T05:36:16.450Z,50.67
2022-08-26T05:39:20.104Z,50.28
2022-08-26T05:42:24.283Z,49.20
2022-08-26T05:45:28.265Z,48.88
2022-08-26T05:48:32.987Z,49.49
2022-08-26T05:51:36.599Z,48.15
2022-08-26T05:54:41.004Z,46.53
2022-08-26T05:57:44.394Z,46.81
2022-08-26T06:00:49.601Z,47.47
2022-08-26T06:03:57.020Z,47.70
2022-08-26T06:07:03.052Z,47.69
2022-08-26T06:10:31.610Z,47.93
2022-08-26T06:13:36.415Z,47.94
2022-08-26T06:16:43.971Z,47.91
2022-08-26T06:19:49.260Z,48.83
2022-08-26T06:23:10.230Z,48.44
2022-08-26T06:26:14.897Z,48.30
2022-08-26T06:29:24.051Z,48.67
2022-08-26T06:32:28.209Z,47.95
2022-08-26T06:35:38.031Z,47.84
2022-08-26T06:38:42.063Z,47.76
2022-08-26T06:41:46.266Z,47.24
2022-08-26T06:44:54.325Z,47.93
2022-08-26T06:47:57.757Z,48.28
2022-08-26T06:51:09.088Z,47.83
2022-08-26T06:54:12.641Z,47.94
2022-08-26T06:57:16.721Z,47.11
2022-08-26T07:00:20.876Z,47.04
2022-08-26T07:03:24.315Z,46.52
2022-08-26T07:06:29.828Z,46.71
2022-08-26T07:09:35.464Z,45.44
2022-08-26T07:12:40.599Z,45.25
2022-08-26T07:15:44.655Z,44.23
2022-08-26T07:18:48.713Z,44.23
2022-08-26T07:21:54.625Z,43.60
2022-08-26T07:24:59.008Z,44.51
2022-08-26T07:28:02.803Z,44.93
2022-08-26T07:31:09.812Z,44.40
2022-08-26T07:34:13.986Z,44.04
2022-08-26T07:37:18.911Z,44.70
2022-08-26T07:40:23.745Z,43.77
2022-08-26T07:43:27.516Z,44.05
2022-08-26T07:46:32.908Z,43.61
2022-08-26T07:49:37.229Z,43.95
2022-08-26T07:52:42.866Z,44.26
2022-08-26T07:55:46.864Z,43.97
2022-08-26T07:58:51.585Z,44.42
2022-08-26T08:01:57.581Z,44.14
2022-08-26T08:05:01.035Z,44.51
2022-08-26T08:08:26.621Z,44.17
2022-08-26T08:11:31.332Z,44.31
2022-08-26T08:14:37.293Z,43.69
2022-08-26T08:17:40.855Z,43.24
2022-08-26T08:20:47.718Z,43.83
2022-08-26T08:24:04.425Z,44.28
2022-08-26T08:27:07.907Z,44.18
2022-08-26T08:30:13.865Z,43.66
2022-08-26T08:33:17.470Z,44.50
2022-08-26T08:36:22.941Z,44.36
2022-08-26T08:39:27.792Z,44.77
2022-08-26T08:42:43.977Z,44.48
2022-08-26T08:45:50.812Z,44.52
2022-08-26T08:48:59.815Z,44.09
2022-08-26T08:52:11.479Z,44.44
2022-08-26T08:55:18.259Z,43.59
2022-08-26T08:58:28.275Z,42.48
2022-08-26T09:01:43.536Z,42.06
2022-08-26T09:04:59.909Z,41.31
2022-08-26T09:08:07.389Z,41.57
2022-08-26T09:11:18.635Z,40.85
2022-08-26T09:14:22.856Z,39.89
2022-08-26T09:17:35.600Z,39.47
2022-08-26T09:20:50.933Z,39.31
2022-08-26T09:23:56.649Z,38.26
2022-08-26T09:27:01.920Z,35.99
2022-08-26T09:30:06.313Z,35.12
2022-08-26T09:33:16.746Z,34.15
2022-08-26T09:36:26.380Z,33.62
2022-08-26T09:39:34.746Z,33.39
2022-08-26T09:42:42.435Z,33.37
2022-08-26T09:45:50.714Z,33.51
2022-08-26T09:48:56.311Z,33.54
2022-08-26T09:52:15.911Z,32.74
2022-08-26T09:55:23.997Z,32.24
2022-08-26T09:58:38.069Z,32.41
2022-08-26T10:01:43.548Z,32.29
2022-08-26T10:04:54.193Z,33.04
2022-08-26T10:07:59.655Z,32.47
2022-08-26T10:11:06.875Z,31.73
2022-08-26T10:14:17.073Z,31.67
2022-08-26T10:17:29.175Z,30.37
2022-08-26T10:20:39.359Z,29.60
2022-08-26T10:23:46.103Z,28.50
2022-08-26T10:27:01.060Z,28.49
2022-08-26T10:30:10.139Z,27.66
2022-08-26T10:33:17.981Z,27.64
2022-08-26T10:37:05.090Z,27.46
2022-08-26T10:40:12.777Z,27.50
2022-08-26T10:43:22.667Z,29.00
2022-08-26T10:46:41.031Z,30.81
2022-08-26T10:49:46.991Z,30.50
2022-08-26T10:53:02.283Z,30.78
2022-08-26T10:56:15.720Z,30.70
2022-08-26T10:59:29.838Z,30.31
2022-08-26T11:02:40.729Z,31.38
2022-08-26T11:06:17.376Z,30.29
2022-08-26T11:09:53.187Z,30.81
2022-08-26T11:13:00.934Z,31.47
2022-08-26T11:16:04.568Z,30.51
2022-08-26T11:19:11.842Z,29.95
2022-08-26T11:22:27.200Z,28.99
2022-08-26T11:25:31.077Z,29.18
2022-08-26T11:28:36.518Z,29.43
2022-08-26T11:32:10.443Z,29.24
2022-08-26T11:35:48.653Z,30.21
2022-08-26T11:38:53.574Z,30.32
2022-08-26T11:42:00.556Z,30.76
2022-08-26T11:45:15.507Z,30.81
2022-08-26T11:48:20.959Z,31.24
2022-08-26T11:51:26.109Z,31.15
2022-08-26T11:54:35.659Z,30.77
2022-08-26T11:57:46.601Z,31.26
2022-08-26T12:00:55.858Z,31.44
2022-08-26T12:04:01.078Z,32.18
2022-08-26T12:07:08.645Z,31.30
2022-08-26T12:10:29.945Z,31.15
2022-08-26T12:13:34.071Z,31.23
2022-08-26T12:16:40.262Z,31.12
2022-08-26T12:19:44.055Z,30.67
2022-08-26T12:22:48.624Z,31.03
2022-08-26T12:26:03.170Z,30.73
2022-08-26T12:29:19.941Z,30.64
2022-08-26T12:32:25.707Z,30.86
2022-08-26T12:35:29.643Z,30.32
2022-08-26T12:38:36.883Z,30.54
2022-08-26T12:41:49.099Z,30.58
2022-08-26T12:45:00.767Z,29.66
2022-08-26T12:48:08.533Z,30.39
2022-08-26T12:51:24.809Z,29.42
2022-08-26T12:54:48.601Z,29.83
2022-08-26T12:58:11.702Z,29.84
2022-08-26T13:01:23.697Z,29.56
2022-08-26T13:04:34.684Z,30.15
2022-08-26T13:07:38.278Z,30.17
2022-08-26T13:10:44.465Z,30.33
2022-08-26T13:13:51.852Z,30.14
2022-08-26T13:16:56.739Z,30.73
2022-08-26T13:20:04.216Z,29.57
2022-08-26T13:23:09.209Z,29.53
2022-08-26T13:26:12.680Z,29.39
2022-08-26T13:29:18.026Z,28.22
2022-08-26T13:32:26.830Z,29.00
2022-08-26T13:35:30.984Z,28.54
2022-08-26T13:38:34.792Z,28.77
2022-08-26T13:41:39.569Z,29.12
2022-08-26T13:44:45.174Z,30.07
2022-08-26T13:47:48.958Z,30.00
2022-08-26T13:50:53.797Z,30.80
2022-08-26T13:53:58.115Z,30.04
2022-08-26T13:57:01.459Z,30.07
2022-08-26T14:00:10.931Z,30.23
2022-08-26T14:03:14.658Z,29.73
2022-08-26T14:06:18.193Z,29.52
2022-08-26T14:09:21.596Z,29.71
2022-08-26T14:12:24.996Z,29.34
2022-08-26T14:15:29.872Z,29.18
2022-08-26T14:18:41.096Z,29.34
2022-08-26T14:21:45.375Z,29.16
2022-08-26T14:24:49.478Z,28.92
2022-08-26T14:27:54.064Z,29.31
2022-08-26T14:30:59.650Z,28.93
2022-08-26T14:34:05.496Z,29.29
2022-08-26T14:37:10.641Z,29.56
2022-08-26T14:40:18.794Z,29.72
2022-08-26T14:43:22.212Z,29.29
2022-08-26T14:46:29.023Z,30.48
2022-08-26T14:49:33.934Z,29.95
2022-08-26T14:52:57.334Z,30.39
2022-08-26T14:56:00.726Z,29.76
2022-08-26T14:59:04.211Z,29.85
2022-08-26T15:02:13.664Z,29.51
2022-08-26T15:05:25.815Z,29.89
2022-08-26T15:08:29.117Z,29.46
2022-08-26T15:11:32.679Z,29.56
2022-08-26T15:14:36.430Z,29.40
2022-08-26T15:17:43.366Z,29.32
2022-08-26T15:20:48.452Z,29.75
2022-08-26T15:23:53.238Z,29.79
2022-08-26T15:26:56.752Z,29.45
2022-08-26T15:30:00.209Z,29.65
2022-08-26T15:33:05.011Z,29.31
2022-08-26T15:36:10.158Z,30.40
2022-08-26T15:39:13.496Z,30.02
2022-08-26T15:42:16.845Z,29.26
2022-08-26T15:45:24.841Z,29.64
2022-08-26T15:48:31.063Z,29.58
2022-08-26T15:51:45.631Z,29.80
2022-08-26T15:54:49.240Z,30.00
2022-08-26T15:57:53.775Z,31.16
2022-08-26T16:00:58.413Z,30.83
2022-08-26T16:04:03.401Z,31.94
2022-08-26T16:07:07.195Z,32.83
2022-08-26T16:10:11.356Z,33.44
2022-08-26T16:13:15.095Z,34.04
2022-08-26T16:16:18.954Z,34.73
2022-08-26T16:19:23.829Z,34.84
2022-08-26T16:22:27.231Z,35.13
2022-08-26T16:25:34.087Z,35.00
2022-08-26T16:28:37.489Z,35.01
2022-08-26T16:31:42.162Z,34.84
2022-08-26T16:34:56.569Z,34.51
2022-08-26T16:38:00.347Z,34.36
2022-08-26T16:41:03.752Z,34.69
2022-08-26T16:44:08.332Z,34.55
2022-08-26T16:47:13.183Z,35.21
2022-08-26T16:50:19.522Z,35.99
2022-08-26T16:53:23.028Z,36.27
2022-08-26T16:56:34.091Z,36.46
2022-08-26T16:59:37.863Z,35.76
2022-08-26T17:02:41.632Z,36.42
2022-08-26T17:05:46.405Z,35.78
2022-08-26T17:08:49.830Z,36.31
2022-08-26T17:11:53.433Z,36.76
2022-08-26T17:14:56.977Z,36.76
2022-08-26T17:18:00.386Z,36.97
2022-08-26T17:21:08.262Z,36.91
2022-08-26T17:24:11.696Z,37.04
2022-08-26T17:27:15.140Z,36.31
2022-08-26T17:30:18.850Z,36.44
2022-08-26T17:33:24.636Z,36.68
2022-08-26T17:36:30.307Z,36.84
2022-08-26T17:39:33.666Z,37.22
2022-08-26T17:42:38.361Z,36.99
2022-08-26T17:45:42.220Z,37.64
2022-08-26T17:48:47.282Z,38.26
2022-08-26T17:51:52.053Z,39.31
2022-08-26T17:54:56.460Z,39.99
2022-08-26T17:58:00.165Z,40.88
2022-08-26T18:01:07.849Z,41.50
2022-08-26T18:04:11.998Z,41.98
2022-08-26T18:07:17.523Z,42.82
2022-08-26T18:10:22.363Z,42.73
2022-08-26T18:13:25.824Z,42.78
2022-08-26T18:16:29.465Z,43.71
2022-08-26T18:19:32.933Z,42.73
2022-08-26T18:22:37.788Z,43.23
2022-08-26T18:25:42.364Z,42.61
2022-08-26T18:28:45.615Z,42.57
2022-08-26T18:31:49.714Z,42.25
2022-08-26T18:34:53.284Z,42.74
2022-08-26T18:38:00.857Z,42.72
2022-08-26T18:41:09.851Z,42.59
2022-08-26T18:44:14.449Z,42.51
2022-08-26T18:47:17.882Z,42.91
2022-08-26T18:50:21.437Z,42.27
2022-08-26T18:53:26.644Z,41.87
2022-08-26T18:56:31.555Z,42.08
2022-08-26T18:59:34.942Z,41.75
2022-08-26T19:02:38.459Z,41.97
2022-08-26T19:05:41.947Z,41.62
2022-08-26T19:08:49.851Z,41.71
2022-08-26T19:11:53.866Z,41.54
2022-08-26T19:14:57.289Z,42.00
2022-08-26T19:18:00.813Z,41.55
2022-08-26T19:21:04.819Z,41.59
2022-08-26T19:24:15.545Z,42.54
2022-08-26T19:27:19.090Z,41.85
2022-08-26T19:30:22.403Z,42.47
2022-08-26T19:33:25.834Z,41.89
2022-08-26T19:36:30.459Z,42.87
2022-08-26T19:39:36.194Z,42.41
2022-08-26T19:42:39.458Z,42.34
2022-08-26T19:45:42.807Z,42.15
2022-08-26T19:48:46.540Z,42.79
2022-08-26T19:51:50.020Z,43.33
2022-08-26T19:54:54.710Z,42.86
2022-08-26T19:57:58.107Z,43.09
2022-08-26T20:01:01.508Z,42.85
2022-08-26T20:04:05.387Z,43.28
2022-08-26T20:07:14.142Z,44.07
2022-08-26T20:10:24.561Z,44.12
2022-08-26T20:13:28.351Z,44.43
2022-08-26T20:16:32.922Z,44.17
2022-08-26T20:19:53.706Z,44.66
2022-08-26T20:22:58.932Z,44.66
2022-08-26T20:26:04.117Z,44.76
2022-08-26T20:29:09.011Z,44.74
2022-08-26T20:32:13.138Z,45.63
2022-08-26T20:35:16.758Z,45.33
2022-08-26T20:38:21.528Z,45.39
2022-08-26T20:41:27.640Z,45.94
2022-08-26T20:44:31.047Z,46.52
2022-08-26T20:47:34.771Z,45.70
2022-08-26T20:50:39.140Z,45.97
2022-08-26T20:53:42.736Z,45.95
2022-08-26T20:56:48.364Z,46.42
2022-08-26T20:59:51.694Z,47.17
2022-08-26T21:02:55.115Z,47.14
2022-08-26T21:05:58.373Z,48.31
2022-08-26T21:09:02.228Z,47.01
2022-08-26T21:12:07.262Z,46.66
2022-08-26T21:15:11.885Z,47.50
2022-08-26T21:18:15.387Z,47.85
2022-08-26T21:21:18.675Z,47.83
2022-08-26T21:24:28.704Z,47.58
2022-08-26T21:27:35.170Z,48.62
2022-08-26T21:30:39.189Z,48.43
2022-08-26T21:33:43.089Z,48.17
2022-08-26T21:36:47.130Z,48.40
2022-08-26T21:39:54.197Z,48.84
2022-08-26T21:42:58.999Z,47.18
2022-08-26T21:46:04.229Z,47.05
2022-08-26T21:49:09.982Z,47.31
2022-08-26T21:52:13.779Z,47.12
2022-08-26T21:55:17.149Z,46.67
2022-08-26T21:58:21.986Z,46.50
2022-08-26T22:01:27.679Z,47.12
2022-08-26T22:04:30.940Z,46.65
2022-08-26T22:07:34.337Z,47.18
2022-08-26T22:10:40.017Z,46.94
2022-08-26T22:13:45.653Z,47.19
2022-08-26T22:16:50.292Z,47.90
2022-08-26T22:19:55.230Z,49.27
2022-08-26T22:23:01.203Z,49.88
2022-08-26T22:26:05.130Z,49.57
2022-08-26T22:29:09.868Z,50.46
2022-08-26T22:32:13.685Z,51.39
2022-08-26T22:35:29.036Z,52.25
2022-08-26T22:38:33.261Z,51.60
2022-08-26T22:41:36.635Z,52.31
2022-08-26T22:44:41.333Z,51.61
2022-08-26T22:47:44.718Z,51.58
2022-08-26T22:50:49.968Z,50.93
2022-08-26T22:53:53.344Z,51.23
2022-08-26T22:56:56.827Z,50.80
2022-08-26T23:00:01.566Z,52.00
2022-08-26T23:03:05.865Z,51.37
2022-08-26T23:06:10.243Z,52.29
2022-08-26T23:09:14.026Z,52.06
2022-08-26T23:12:17.354Z,52.57
2022-08-26T23:15:22.874Z,52.56
2022-08-26T23:18:26.162Z,51.99
2022-08-26T23:21:29.607Z,53.34
2022-08-26T23:24:33.456Z,53.49
2022-08-26T23:27:37.997Z,53.56
2022-08-26T23:30:42.724Z,54.04
2022-08-26T23:34:03.868Z,53.62
2022-08-26T23:37:07.819Z,52.56
2022-08-26T23:40:13.932Z,53.21
2022-08-26T23:43:17.754Z,52.97
2022-08-26T23:46:22.440Z,52.08
2022-08-26T23:49:26.749Z,52.19
2022-08-26T23:52:47.733Z,51.71
2022-08-26T23:55:53.462Z,52.01
2022-08-26T23:58:57.347Z,52.93
